sensor_id;sensor_type;location;lat;lon;timestamp;temperature;humidity
28244;DHT22;15510;52.512;13.300;2022-09-12T00:00:28;14.80;99.90
28244;DHT22;15510;52.512;13.300;2022-09-12T00:02:56;14.80;99.90
28244;DHT22;15510;52.512;13.300;2022-09-12T00:05:22;14.90;99.90
28244;DHT22;15510;52.512;13.300;2022-09-12T00:07:47;14.80;99.90
28244;DHT22;15510;52.512;13.300;2022-09-12T00:10:13;14.80;99.90
28244;DHT22;15510;52.512;13.300;2022-09-12T00:12:39;14.80;99.90
28244;DHT22;15510;52.512;13.300;2022-09-12T00:15:05;14.80;99.90
28244;DHT22;15510;52.512;13.300;2022-09-12T00:17:35;14.80;99.90
28244;DHT22;15510;52.512;13.300;2022-09-12T00:20:01;14.80;99.90
28244;DHT22;15510;52.512;13.300;2022-09-12T00:22:26;14.70;99.90
28244;DHT22;15510;52.512;13.300;2022-09-12T00:24:52;14.70;99.90
28244;DHT22;15510;52.512;13.300;2022-09-12T00:27:18;14.70;99.90
28244;DHT22;15510;52.512;13.300;2022-09-12T00:29:43;14.70;99.90
28244;DHT22;15510;52.512;13.300;2022-09-12T00:32:09;14.70;99.90
28244;DHT22;15510;52.512;13.300;2022-09-12T00:34:35;14.60;99.90
28244;DHT22;15510;52.512;13.300;2022-09-12T00:37:00;14.60;99.90
28244;DHT22;15510;52.512;13.300;2022-09-12T00:39:26;14.60;99.90
28244;DHT22;15510;52.512;13.300;2022-09-12T00:41:52;14.50;99.90
28244;DHT22;15510;52.512;13.300;2022-09-12T00:47:20;14.50;99.90
28244;DHT22;15510;52.512;13.300;2022-09-12T00:50:00;14.40;99.90
28244;DHT22;15510;52.512;13.300;2022-09-12T00:52:39;14.40;99.90
28244;DHT22;15510;52.512;13.300;2022-09-12T00:55:17;14.40;99.90
28244;DHT22;15510;52.512;13.300;2022-09-12T00:58:01;14.40;99.90
28244;DHT22;15510;52.512;13.300;2022-09-12T01:00:28;14.40;99.90
28244;DHT22;15510;52.512;13.300;2022-09-12T01:02:56;14.40;99.90
28244;DHT22;15510;52.512;13.300;2022-09-12T01:05:23;14.40;99.90
28244;DHT22;15510;52.512;13.300;2022-09-12T01:07:50;14.40;99.90
28244;DHT22;15510;52.512;13.300;2022-09-12T01:10:17;14.30;99.90
28244;DHT22;15510;52.512;13.300;2022-09-12T01:12:44;14.30;99.90
28244;DHT22;15510;52.512;13.300;2022-09-12T01:15:10;14.40;99.90
28244;DHT22;15510;52.512;13.300;2022-09-12T01:29:39;14.30;99.90
28244;DHT22;15510;52.512;13.300;2022-09-12T01:32:15;14.30;99.90
28244;DHT22;15510;52.512;13.300;2022-09-12T01:34:46;14.30;99.90
28244;DHT22;15510;52.512;13.300;2022-09-12T01:37:41;14.20;99.90
28244;DHT22;15510;52.512;13.300;2022-09-12T01:40:36;14.20;99.90
28244;DHT22;15510;52.512;13.300;2022-09-12T01:43:16;14.20;99.90
28244;DHT22;15510;52.512;13.300;2022-09-12T01:45:57;14.10;99.90
28244;DHT22;15510;52.512;13.300;2022-09-12T01:48:29;14.00;99.90
28244;DHT22;15510;52.512;13.300;2022-09-12T01:50:58;14.00;99.90
28244;DHT22;15510;52.512;13.300;2022-09-12T01:53:31;14.00;99.90
28244;DHT22;15510;52.512;13.300;2022-09-12T01:56:07;14.00;99.90
28244;DHT22;15510;52.512;13.300;2022-09-12T01:58:40;14.00;99.90
28244;DHT22;15510;52.512;13.300;2022-09-12T02:01:18;14.00;99.90
28244;DHT22;15510;52.512;13.300;2022-09-12T02:03:49;14.00;99.90
28244;DHT22;15510;52.512;13.300;2022-09-12T02:06:25;14.00;99.90
28244;DHT22;15510;52.512;13.300;2022-09-12T02:08:57;13.90;99.90
28244;DHT22;15510;52.512;13.300;2022-09-12T02:11:23;14.00;99.90
28244;DHT22;15510;52.512;13.300;2022-09-12T02:13:58;14.00;99.90
28244;DHT22;15510;52.512;13.300;2022-09-12T02:16:30;13.90;99.90
28244;DHT22;15510;52.512;13.300;2022-09-12T02:19:04;13.90;99.90
28244;DHT22;15510;52.512;13.300;2022-09-12T02:21:33;13.90;99.90
28244;DHT22;15510;52.512;13.300;2022-09-12T02:24:03;13.90;99.90
28244;DHT22;15510;52.512;13.300;2022-09-12T02:26:34;13.90;99.90
28244;DHT22;15510;52.512;13.300;2022-09-12T02:29:01;13.90;99.90
28244;DHT22;15510;52.512;13.300;2022-09-12T02:31:42;13.90;99.90
28244;DHT22;15510;52.512;13.300;2022-09-12T02:36:54;13.80;99.90
28244;DHT22;15510;52.512;13.300;2022-09-12T02:39:23;13.80;99.90
28244;DHT22;15510;52.512;13.300;2022-09-12T02:41:50;13.80;99.90
28244;DHT22;15510;52.512;13.300;2022-09-12T02:44:17;13.80;99.90
28244;DHT22;15510;52.512;13.300;2022-09-12T02:46:47;13.70;99.90
28244;DHT22;15510;52.512;13.300;2022-09-12T02:49:14;13.70;99.90
28244;DHT22;15510;52.512;13.300;2022-09-12T02:51:41;13.70;99.90
28244;DHT22;15510;52.512;13.300;2022-09-12T02:54:07;13.70;99.90
28244;DHT22;15510;52.512;13.300;2022-09-12T02:56:34;13.70;99.90
28244;DHT22;15510;52.512;13.300;2022-09-12T02:59:06;13.70;99.90
28244;DHT22;15510;52.512;13.300;2022-09-12T03:02:03;13.70;99.90
28244;DHT22;15510;52.512;13.300;2022-09-12T03:07:14;13.70;99.90
28244;DHT22;15510;52.512;13.300;2022-09-12T03:09:54;13.70;99.90
28244;DHT22;15510;52.512;13.300;2022-09-12T03:12:41;13.70;99.90
28244;DHT22;15510;52.512;13.300;2022-09-12T03:15:42;13.70;99.90
28244;DHT22;15510;52.512;13.300;2022-09-12T03:19:08;13.60;99.90
28244;DHT22;15510;52.512;13.300;2022-09-12T03:21:08;13.60;99.90
28244;DHT22;15510;52.512;13.300;2022-09-12T03:24:31;13.60;99.90
28244;DHT22;15510;52.512;13.300;2022-09-12T03:27:19;13.60;99.90
28244;DHT22;15510;52.512;13.300;2022-09-12T03:29:46;13.60;99.90
28244;DHT22;15510;52.512;13.300;2022-09-12T03:32:12;13.60;99.90
28244;DHT22;15510;52.512;13.300;2022-09-12T03:34:38;13.60;99.90
28244;DHT22;15510;52.512;13.300;2022-09-12T03:37:03;13.60;99.90
28244;DHT22;15510;52.512;13.300;2022-09-12T03:39:29;13.60;99.90
28244;DHT22;15510;52.512;13.300;2022-09-12T03:41:55;13.60;99.90
28244;DHT22;15510;52.512;13.300;2022-09-12T03:44:21;13.60;99.90
28244;DHT22;15510;52.512;13.300;2022-09-12T03:46:47;13.60;99.90
28244;DHT22;15510;52.512;13.300;2022-09-12T03:49:13;13.60;99.90
28244;DHT22;15510;52.512;13.300;2022-09-12T03:51:39;13.60;99.90
28244;DHT22;15510;52.512;13.300;2022-09-12T03:54:05;13.60;99.90
28244;DHT22;15510;52.512;13.300;2022-09-12T03:56:31;13.50;99.90
28244;DHT22;15510;52.512;13.300;2022-09-12T03:58:56;13.50;99.90
28244;DHT22;15510;52.512;13.300;2022-09-12T04:01:22;13.60;99.90
28244;DHT22;15510;52.512;13.300;2022-09-12T04:03:49;13.60;99.90
28244;DHT22;15510;52.512;13.300;2022-09-12T04:06:17;13.60;99.90
28244;DHT22;15510;52.512;13.300;2022-09-12T04:08:46;13.60;99.90
28244;DHT22;15510;52.512;13.300;2022-09-12T04:11:13;13.60;99.90
28244;DHT22;15510;52.512;13.300;2022-09-12T04:13:41;13.50;99.90
28244;DHT22;15510;52.512;13.300;2022-09-12T04:16:07;13.50;99.90
28244;DHT22;15510;52.512;13.300;2022-09-12T04:18:33;13.50;99.90
28244;DHT22;15510;52.512;13.300;2022-09-12T04:21:04;13.40;99.90
28244;DHT22;15510;52.512;13.300;2022-09-12T04:23:30;13.40;99.90
28244;DHT22;15510;52.512;13.300;2022-09-12T04:25:57;13.40;99.90
28244;DHT22;15510;52.512;13.300;2022-09-12T04:28:23;13.40;99.90
28244;DHT22;15510;52.512;13.300;2022-09-12T04:30:49;13.30;99.90
28244;DHT22;15510;52.512;13.300;2022-09-12T04:33:15;13.30;99.90
28244;DHT22;15510;52.512;13.300;2022-09-12T04:35:41;13.30;99.90
28244;DHT22;15510;52.512;13.300;2022-09-12T04:38:08;13.30;99.90
28244;DHT22;15510;52.512;13.300;2022-09-12T04:40:34;13.30;99.90
28244;DHT22;15510;52.512;13.300;2022-09-12T04:42:59;13.30;99.90
28244;DHT22;15510;52.512;13.300;2022-09-12T04:45:25;13.30;99.90
28244;DHT22;15510;52.512;13.300;2022-09-12T04:47:51;13.30;99.90
28244;DHT22;15510;52.512;13.300;2022-09-12T04:50:17;13.30;99.90
28244;DHT22;15510;52.512;13.300;2022-09-12T04:52:43;13.40;99.90
28244;DHT22;15510;52.512;13.300;2022-09-12T04:55:08;13.40;99.90
28244;DHT22;15510;52.512;13.300;2022-09-12T04:57:34;13.40;99.90
28244;DHT22;15510;52.512;13.300;2022-09-12T05:00:00;13.40;99.90
28244;DHT22;15510;52.512;13.300;2022-09-12T05:02:26;13.40;99.90
28244;DHT22;15510;52.512;13.300;2022-09-12T05:04:53;13.30;99.90
28244;DHT22;15510;52.512;13.300;2022-09-12T05:07:18;13.40;99.90
28244;DHT22;15510;52.512;13.300;2022-09-12T05:09:44;13.30;99.90
28244;DHT22;15510;52.512;13.300;2022-09-12T05:12:11;13.30;99.90
28244;DHT22;15510;52.512;13.300;2022-09-12T05:14:36;13.30;99.90
28244;DHT22;15510;52.512;13.300;2022-09-12T05:17:03;13.30;99.90
28244;DHT22;15510;52.512;13.300;2022-09-12T05:19:30;13.30;99.90
28244;DHT22;15510;52.512;13.300;2022-09-12T05:21:57;13.30;99.90
28244;DHT22;15510;52.512;13.300;2022-09-12T05:24:23;13.30;99.90
28244;DHT22;15510;52.512;13.300;2022-09-12T05:26:49;13.40;99.90
28244;DHT22;15510;52.512;13.300;2022-09-12T05:29:14;13.50;99.90
28244;DHT22;15510;52.512;13.300;2022-09-12T05:31:40;13.60;99.90
28244;DHT22;15510;52.512;13.300;2022-09-12T05:34:06;13.60;99.90
28244;DHT22;15510;52.512;13.300;2022-09-12T05:36:35;13.70;99.90
28244;DHT22;15510;52.512;13.300;2022-09-12T05:39:02;13.70;99.90
28244;DHT22;15510;52.512;13.300;2022-09-12T05:41:30;13.80;99.90
28244;DHT22;15510;52.512;13.300;2022-09-12T05:43:58;13.80;99.90
28244;DHT22;15510;52.512;13.300;2022-09-12T05:46:30;13.80;99.90
28244;DHT22;15510;52.512;13.300;2022-09-12T05:49:01;13.80;99.90
28244;DHT22;15510;52.512;13.300;2022-09-12T05:51:27;13.80;99.90
28244;DHT22;15510;52.512;13.300;2022-09-12T05:53:56;13.90;99.90
28244;DHT22;15510;52.512;13.300;2022-09-12T05:56:27;13.90;99.90
28244;DHT22;15510;52.512;13.300;2022-09-12T05:58:56;14.00;99.90
28244;DHT22;15510;52.512;13.300;2022-09-12T06:01:22;14.10;99.90
28244;DHT22;15510;52.512;13.300;2022-09-12T06:03:53;14.10;99.90
28244;DHT22;15510;52.512;13.300;2022-09-12T06:06:21;14.10;99.90
28244;DHT22;15510;52.512;13.300;2022-09-12T06:08:52;14.20;99.90
28244;DHT22;15510;52.512;13.300;2022-09-12T06:11:23;14.20;99.90
28244;DHT22;15510;52.512;13.300;2022-09-12T06:13:50;14.20;99.90
28244;DHT22;15510;52.512;13.300;2022-09-12T06:16:19;14.20;99.90
28244;DHT22;15510;52.512;13.300;2022-09-12T06:18:55;14.30;99.90
28244;DHT22;15510;52.512;13.300;2022-09-12T06:21:22;14.30;99.90
28244;DHT22;15510;52.512;13.300;2022-09-12T06:23:48;14.30;99.90
28244;DHT22;15510;52.512;13.300;2022-09-12T06:26:15;14.40;99.90
28244;DHT22;15510;52.512;13.300;2022-09-12T06:28:42;14.50;99.90
28244;DHT22;15510;52.512;13.300;2022-09-12T06:31:14;14.50;99.90
28244;DHT22;15510;52.512;13.300;2022-09-12T06:33:42;14.50;99.90
28244;DHT22;15510;52.512;13.300;2022-09-12T06:36:13;14.70;99.90
28244;DHT22;15510;52.512;13.300;2022-09-12T06:38:41;14.70;99.90
28244;DHT22;15510;52.512;13.300;2022-09-12T06:41:09;14.80;99.90
28244;DHT22;15510;52.512;13.300;2022-09-12T06:43:36;14.90;99.90
28244;DHT22;15510;52.512;13.300;2022-09-12T06:46:02;14.90;99.90
28244;DHT22;15510;52.512;13.300;2022-09-12T06:48:28;14.90;99.90
28244;DHT22;15510;52.512;13.300;2022-09-12T06:50:55;15.00;99.90
28244;DHT22;15510;52.512;13.300;2022-09-12T06:53:22;15.00;99.90
28244;DHT22;15510;52.512;13.300;2022-09-12T06:55:57;15.10;99.90
28244;DHT22;15510;52.512;13.300;2022-09-12T06:58:23;15.20;99.90
28244;DHT22;15510;52.512;13.300;2022-09-12T07:00:49;15.20;99.90
28244;DHT22;15510;52.512;13.300;2022-09-12T07:03:15;15.30;99.90
28244;DHT22;15510;52.512;13.300;2022-09-12T07:05:40;15.30;99.90
28244;DHT22;15510;52.512;13.300;2022-09-12T07:08:06;15.40;99.90
28244;DHT22;15510;52.512;13.300;2022-09-12T07:10:32;15.50;99.90
28244;DHT22;15510;52.512;13.300;2022-09-12T07:12:57;15.60;99.90
28244;DHT22;15510;52.512;13.300;2022-09-12T07:15:23;15.60;99.90
28244;DHT22;15510;52.512;13.300;2022-09-12T07:17:49;15.70;99.90
28244;DHT22;15510;52.512;13.300;2022-09-12T07:20:15;15.80;99.90
28244;DHT22;15510;52.512;13.300;2022-09-12T07:22:41;15.90;99.90
28244;DHT22;15510;52.512;13.300;2022-09-12T07:25:06;16.00;99.90
28244;DHT22;15510;52.512;13.300;2022-09-12T07:27:32;16.00;99.90
28244;DHT22;15510;52.512;13.300;2022-09-12T07:29:58;16.10;99.90
28244;DHT22;15510;52.512;13.300;2022-09-12T07:32:24;16.10;99.90
28244;DHT22;15510;52.512;13.300;2022-09-12T07:34:50;16.20;99.90
28244;DHT22;15510;52.512;13.300;2022-09-12T07:37:16;16.30;99.90
28244;DHT22;15510;52.512;13.300;2022-09-12T07:39:42;16.40;99.90
28244;DHT22;15510;52.512;13.300;2022-09-12T07:42:08;16.60;99.90
28244;DHT22;15510;52.512;13.300;2022-09-12T07:44:33;16.60;99.90
28244;DHT22;15510;52.512;13.300;2022-09-12T07:46:59;16.60;99.90
28244;DHT22;15510;52.512;13.300;2022-09-12T07:49:25;16.70;99.90
28244;DHT22;15510;52.512;13.300;2022-09-12T07:51:50;16.70;99.90
28244;DHT22;15510;52.512;13.300;2022-09-12T07:54:16;16.80;99.90
28244;DHT22;15510;52.512;13.300;2022-09-12T07:56:44;16.90;99.90
28244;DHT22;15510;52.512;13.300;2022-09-12T07:59:10;17.00;99.90
28244;DHT22;15510;52.512;13.300;2022-09-12T08:01:35;17.00;99.90
28244;DHT22;15510;52.512;13.300;2022-09-12T08:04:01;17.20;99.90
28244;DHT22;15510;52.512;13.300;2022-09-12T08:06:29;17.20;99.90
28244;DHT22;15510;52.512;13.300;2022-09-12T08:08:57;17.30;99.90
28244;DHT22;15510;52.512;13.300;2022-09-12T08:11:25;17.30;99.90
28244;DHT22;15510;52.512;13.300;2022-09-12T08:13:52;17.30;99.90
28244;DHT22;15510;52.512;13.300;2022-09-12T08:16:21;17.40;99.90
28244;DHT22;15510;52.512;13.300;2022-09-12T08:18:48;17.40;99.90
28244;DHT22;15510;52.512;13.300;2022-09-12T08:21:18;17.40;99.90
28244;DHT22;15510;52.512;13.300;2022-09-12T08:23:44;17.50;99.90
28244;DHT22;15510;52.512;13.300;2022-09-12T08:26:11;17.60;99.90
28244;DHT22;15510;52.512;13.300;2022-09-12T08:28:37;17.60;99.90
28244;DHT22;15510;52.512;13.300;2022-09-12T08:31:10;17.50;99.90
28244;DHT22;15510;52.512;13.300;2022-09-12T08:33:37;17.60;99.90
28244;DHT22;15510;52.512;13.300;2022-09-12T08:36:08;17.70;99.90
28244;DHT22;15510;52.512;13.300;2022-09-12T08:38:35;17.70;99.90
28244;DHT22;15510;52.512;13.300;2022-09-12T08:49:35;17.90;99.90
28244;DHT22;15510;52.512;13.300;2022-09-12T08:52:12;18.00;99.90
28244;DHT22;15510;52.512;13.300;2022-09-12T08:54:39;18.10;99.90
28244;DHT22;15510;52.512;13.300;2022-09-12T08:57:08;18.10;99.90
28244;DHT22;15510;52.512;13.300;2022-09-12T08:59:39;18.20;99.90
28244;DHT22;15510;52.512;13.300;2022-09-12T09:02:30;18.20;99.90
28244;DHT22;15510;52.512;13.300;2022-09-12T09:11:19;18.20;99.90
28244;DHT22;15510;52.512;13.300;2022-09-12T09:16:41;18.40;99.90
28244;DHT22;15510;52.512;13.300;2022-09-12T09:19:20;18.40;99.90
28244;DHT22;15510;52.512;13.300;2022-09-12T09:21:59;18.40;99.90
28244;DHT22;15510;52.512;13.300;2022-09-12T09:24:37;18.40;99.90
28244;DHT22;15510;52.512;13.300;2022-09-12T09:27:17;18.40;99.90
28244;DHT22;15510;52.512;13.300;2022-09-12T09:29:46;18.50;99.90
28244;DHT22;15510;52.512;13.300;2022-09-12T09:32:18;18.60;99.90
28244;DHT22;15510;52.512;13.300;2022-09-12T09:34:47;18.60;99.90
28244;DHT22;15510;52.512;13.300;2022-09-12T09:40:17;18.70;99.90
28244;DHT22;15510;52.512;13.300;2022-09-12T09:45:40;19.00;99.90
28244;DHT22;15510;52.512;13.300;2022-09-12T09:50:35;19.10;99.90
28244;DHT22;15510;52.512;13.300;2022-09-12T09:53:02;19.10;99.90
28244;DHT22;15510;52.512;13.300;2022-09-12T09:55:37;19.10;99.90
28244;DHT22;15510;52.512;13.300;2022-09-12T09:58:04;19.20;99.90
28244;DHT22;15510;52.512;13.300;2022-09-12T10:03:01;19.40;99.90
28244;DHT22;15510;52.512;13.300;2022-09-12T10:05:33;19.40;99.90
28244;DHT22;15510;52.512;13.300;2022-09-12T10:07:59;19.50;99.90
28244;DHT22;15510;52.512;13.300;2022-09-12T10:10:24;19.60;99.90
28244;DHT22;15510;52.512;13.300;2022-09-12T10:13:05;19.60;99.90
28244;DHT22;15510;52.512;13.300;2022-09-12T10:15:31;19.60;99.90
28244;DHT22;15510;52.512;13.300;2022-09-12T10:17:57;19.60;99.90
28244;DHT22;15510;52.512;13.300;2022-09-12T10:20:38;19.70;99.90
28244;DHT22;15510;52.512;13.300;2022-09-12T10:23:43;19.70;99.90
28244;DHT22;15510;52.512;13.300;2022-09-12T10:26:12;19.80;99.90
28244;DHT22;15510;52.512;13.300;2022-09-12T10:28:46;19.70;99.90
28244;DHT22;15510;52.512;13.300;2022-09-12T10:31:15;19.60;99.90
28244;DHT22;15510;52.512;13.300;2022-09-12T10:33:48;19.60;99.90
28244;DHT22;15510;52.512;13.300;2022-09-12T10:36:20;19.80;99.90
28244;DHT22;15510;52.512;13.300;2022-09-12T10:38:50;20.00;99.90
28244;DHT22;15510;52.512;13.300;2022-09-12T10:41:17;20.20;99.90
28244;DHT22;15510;52.512;13.300;2022-09-12T10:43:43;20.30;99.90
28244;DHT22;15510;52.512;13.300;2022-09-12T10:48:42;20.80;99.90
28244;DHT22;15510;52.512;13.300;2022-09-12T10:53:48;21.20;99.90
28244;DHT22;15510;52.512;13.300;2022-09-12T10:56:20;21.30;99.90
28244;DHT22;15510;52.512;13.300;2022-09-12T11:04:17;21.70;99.90
28244;DHT22;15510;52.512;13.300;2022-09-12T11:07:15;21.90;99.90
28244;DHT22;15510;52.512;13.300;2022-09-12T11:12:31;22.00;99.90
28244;DHT22;15510;52.512;13.300;2022-09-12T11:17:47;23.30;99.90
28244;DHT22;15510;52.512;13.300;2022-09-12T11:20:52;23.90;99.90
28244;DHT22;15510;52.512;13.300;2022-09-12T11:23:34;24.30;99.90
28244;DHT22;15510;52.512;13.300;2022-09-12T11:29:24;25.60;99.90
28244;DHT22;15510;52.512;13.300;2022-09-12T11:40:41;27.20;92.50
28244;DHT22;15510;52.512;13.300;2022-09-12T11:45:45;27.90;91.50
28244;DHT22;15510;52.512;13.300;2022-09-12T11:48:18;27.70;91.30
28244;DHT22;15510;52.512;13.300;2022-09-12T11:50:45;28.00;90.20
28244;DHT22;15510;52.512;13.300;2022-09-12T11:53:17;28.10;87.90
28244;DHT22;15510;52.512;13.300;2022-09-12T11:55:56;28.20;87.00
28244;DHT22;15510;52.512;13.300;2022-09-12T11:58:26;28.50;80.50
28244;DHT22;15510;52.512;13.300;2022-09-12T12:01:09;28.60;79.10
28244;DHT22;15510;52.512;13.300;2022-09-12T12:03:42;28.70;77.50
28244;DHT22;15510;52.512;13.300;2022-09-12T12:06:20;28.70;82.20
28244;DHT22;15510;52.512;13.300;2022-09-12T12:08:46;28.70;78.20
28244;DHT22;15510;52.512;13.300;2022-09-12T12:14:14;28.80;73.50
28244;DHT22;15510;52.512;13.300;2022-09-12T12:16:41;29.00;73.50
28244;DHT22;15510;52.512;13.300;2022-09-12T12:21:39;29.40;71.50
28244;DHT22;15510;52.512;13.300;2022-09-12T12:34:37;29.50;70.10
28244;DHT22;15510;52.512;13.300;2022-09-12T12:44:59;29.00;70.90
28244;DHT22;15510;52.512;13.300;2022-09-12T12:47:33;28.40;72.20
28244;DHT22;15510;52.512;13.300;2022-09-12T12:53:01;26.60;78.20
28244;DHT22;15510;52.512;13.300;2022-09-12T12:55:49;25.80;81.50
28244;DHT22;15510;52.512;13.300;2022-09-12T12:58:31;25.30;84.90
28244;DHT22;15510;52.512;13.300;2022-09-12T13:01:18;24.90;87.80
28244;DHT22;15510;52.512;13.300;2022-09-12T13:03:55;25.00;88.10
28244;DHT22;15510;52.512;13.300;2022-09-12T13:06:37;25.50;87.70
28244;DHT22;15510;52.512;13.300;2022-09-12T13:09:08;26.20;86.40
28244;DHT22;15510;52.512;13.300;2022-09-12T13:11:42;26.70;84.80
28244;DHT22;15510;52.512;13.300;2022-09-12T13:14:35;27.20;84.80
28244;DHT22;15510;52.512;13.300;2022-09-12T13:17:04;27.40;82.40
28244;DHT22;15510;52.512;13.300;2022-09-12T13:19:33;27.70;80.70
28244;DHT22;15510;52.512;13.300;2022-09-12T13:22:03;27.70;81.20
28244;DHT22;15510;52.512;13.300;2022-09-12T13:24:29;27.90;79.10
28244;DHT22;15510;52.512;13.300;2022-09-12T13:26:55;28.00;77.90
28244;DHT22;15510;52.512;13.300;2022-09-12T13:29:24;28.00;76.70
28244;DHT22;15510;52.512;13.300;2022-09-12T13:32:00;27.80;77.70
28244;DHT22;15510;52.512;13.300;2022-09-12T13:34:30;27.70;77.00
28244;DHT22;15510;52.512;13.300;2022-09-12T13:39:55;27.40;78.40
28244;DHT22;15510;52.512;13.300;2022-09-12T13:42:48;27.10;78.70
28244;DHT22;15510;52.512;13.300;2022-09-12T13:45:24;26.70;81.00
28244;DHT22;15510;52.512;13.300;2022-09-12T13:47:56;26.20;82.80
28244;DHT22;15510;52.512;13.300;2022-09-12T13:50:26;26.00;84.10
28244;DHT22;15510;52.512;13.300;2022-09-12T13:52:55;25.70;85.70
28244;DHT22;15510;52.512;13.300;2022-09-12T13:55:28;25.50;86.30
28244;DHT22;15510;52.512;13.300;2022-09-12T13:58:14;25.30;87.80
28244;DHT22;15510;52.512;13.300;2022-09-12T14:00:40;25.00;87.80
28244;DHT22;15510;52.512;13.300;2022-09-12T14:03:32;24.90;88.30
28244;DHT22;15510;52.512;13.300;2022-09-12T14:06:16;24.90;90.00
28244;DHT22;15510;52.512;13.300;2022-09-12T14:08:46;24.50;90.60
28244;DHT22;15510;52.512;13.300;2022-09-12T14:11:26;24.30;91.20
28244;DHT22;15510;52.512;13.300;2022-09-12T14:13:53;24.30;91.40
28244;DHT22;15510;52.512;13.300;2022-09-12T14:16:20;24.00;91.50
28244;DHT22;15510;52.512;13.300;2022-09-12T14:18:48;23.90;91.60
28244;DHT22;15510;52.512;13.300;2022-09-12T14:23:55;23.90;93.00
28244;DHT22;15510;52.512;13.300;2022-09-12T14:26:22;23.50;93.30
28244;DHT22;15510;52.512;13.300;2022-09-12T14:28:49;23.60;93.80
28244;DHT22;15510;52.512;13.300;2022-09-12T14:34:06;23.50;93.20
28244;DHT22;15510;52.512;13.300;2022-09-12T14:36:35;23.40;93.50
28244;DHT22;15510;52.512;13.300;2022-09-12T14:39:04;23.40;94.20
28244;DHT22;15510;52.512;13.300;2022-09-12T14:41:36;23.40;93.90
28244;DHT22;15510;52.512;13.300;2022-09-12T14:44:06;23.30;93.80
28244;DHT22;15510;52.512;13.300;2022-09-12T14:46:34;23.10;94.40
28244;DHT22;15510;52.512;13.300;2022-09-12T14:49:07;23.00;94.60
28244;DHT22;15510;52.512;13.300;2022-09-12T14:51:37;23.00;95.20
28244;DHT22;15510;52.512;13.300;2022-09-12T14:54:04;22.90;95.60
28244;DHT22;15510;52.512;13.300;2022-09-12T14:56:52;22.80;96.10
28244;DHT22;15510;52.512;13.300;2022-09-12T15:02:20;22.80;97.00
28244;DHT22;15510;52.512;13.300;2022-09-12T15:04:48;22.70;97.20
28244;DHT22;15510;52.512;13.300;2022-09-12T15:09:39;22.50;97.70
28244;DHT22;15510;52.512;13.300;2022-09-12T15:12:07;22.40;97.90
28244;DHT22;15510;52.512;13.300;2022-09-12T15:14:33;22.20;99.10
28244;DHT22;15510;52.512;13.300;2022-09-12T15:16:58;22.10;99.50
28244;DHT22;15510;52.512;13.300;2022-09-12T15:19:24;22.00;99.90
28244;DHT22;15510;52.512;13.300;2022-09-12T15:21:50;21.90;99.90
28244;DHT22;15510;52.512;13.300;2022-09-12T15:24:15;21.90;99.90
28244;DHT22;15510;52.512;13.300;2022-09-12T15:26:41;21.80;99.90
28244;DHT22;15510;52.512;13.300;2022-09-12T15:29:07;21.80;99.90
28244;DHT22;15510;52.512;13.300;2022-09-12T15:31:32;21.80;99.90
28244;DHT22;15510;52.512;13.300;2022-09-12T15:34:00;21.70;99.90
28244;DHT22;15510;52.512;13.300;2022-09-12T15:36:27;21.70;99.90
28244;DHT22;15510;52.512;13.300;2022-09-12T15:38:53;21.70;99.90
28244;DHT22;15510;52.512;13.300;2022-09-12T15:43:51;21.60;99.90
28244;DHT22;15510;52.512;13.300;2022-09-12T15:46:17;21.50;99.90
28244;DHT22;15510;52.512;13.300;2022-09-12T15:48:43;21.50;99.90
28244;DHT22;15510;52.512;13.300;2022-09-12T15:51:14;21.50;99.90
28244;DHT22;15510;52.512;13.300;2022-09-12T15:53:41;21.50;99.90
28244;DHT22;15510;52.512;13.300;2022-09-12T15:56:07;21.30;99.90
28244;DHT22;15510;52.512;13.300;2022-09-12T15:58:33;21.30;99.90
28244;DHT22;15510;52.512;13.300;2022-09-12T16:00:59;21.20;99.90
28244;DHT22;15510;52.512;13.300;2022-09-12T16:03:26;21.20;99.90
28244;DHT22;15510;52.512;13.300;2022-09-12T16:05:57;21.20;99.90
28244;DHT22;15510;52.512;13.300;2022-09-12T16:08:24;21.10;99.90
28244;DHT22;15510;52.512;13.300;2022-09-12T16:10:56;21.00;99.90
28244;DHT22;15510;52.512;13.300;2022-09-12T16:13:23;20.90;99.90
28244;DHT22;15510;52.512;13.300;2022-09-12T16:15:49;20.90;99.90
28244;DHT22;15510;52.512;13.300;2022-09-12T16:18:15;20.80;99.90
28244;DHT22;15510;52.512;13.300;2022-09-12T16:20:41;20.80;99.90
28244;DHT22;15510;52.512;13.300;2022-09-12T16:23:10;20.70;99.90
28244;DHT22;15510;52.512;13.300;2022-09-12T16:25:36;20.70;99.90
28244;DHT22;15510;52.512;13.300;2022-09-12T16:28:04;20.60;99.90
28244;DHT22;15510;52.512;13.300;2022-09-12T16:30:33;20.60;99.90
28244;DHT22;15510;52.512;13.300;2022-09-12T16:32:58;20.50;99.90
28244;DHT22;15510;52.512;13.300;2022-09-12T16:35:24;20.50;99.90
28244;DHT22;15510;52.512;13.300;2022-09-12T16:37:50;20.50;99.90
28244;DHT22;15510;52.512;13.300;2022-09-12T16:40:15;20.40;99.90
28244;DHT22;15510;52.512;13.300;2022-09-12T16:42:45;20.40;99.90
28244;DHT22;15510;52.512;13.300;2022-09-12T16:45:11;20.40;99.90
28244;DHT22;15510;52.512;13.300;2022-09-12T16:47:37;20.40;99.90
28244;DHT22;15510;52.512;13.300;2022-09-12T16:50:03;20.40;99.90
28244;DHT22;15510;52.512;13.300;2022-09-12T16:52:29;20.20;99.90
28244;DHT22;15510;52.512;13.300;2022-09-12T16:54:56;20.20;99.90
28244;DHT22;15510;52.512;13.300;2022-09-12T16:57:22;20.10;99.90
28244;DHT22;15510;52.512;13.300;2022-09-12T16:59:48;20.00;99.90
28244;DHT22;15510;52.512;13.300;2022-09-12T17:02:13;19.90;99.90
28244;DHT22;15510;52.512;13.300;2022-09-12T17:04:40;19.90;99.90
28244;DHT22;15510;52.512;13.300;2022-09-12T17:07:06;19.80;99.90
28244;DHT22;15510;52.512;13.300;2022-09-12T17:09:32;19.70;99.90
28244;DHT22;15510;52.512;13.300;2022-09-12T17:11:57;19.60;99.90
28244;DHT22;15510;52.512;13.300;2022-09-12T17:14:23;19.60;99.90
28244;DHT22;15510;52.512;13.300;2022-09-12T17:16:50;19.50;99.90
28244;DHT22;15510;52.512;13.300;2022-09-12T17:19:21;19.40;99.90
28244;DHT22;15510;52.512;13.300;2022-09-12T17:21:48;19.40;99.90
28244;DHT22;15510;52.512;13.300;2022-09-12T17:24:16;19.40;99.90
28244;DHT22;15510;52.512;13.300;2022-09-12T17:26:42;19.30;99.90
28244;DHT22;15510;52.512;13.300;2022-09-12T17:29:10;19.30;99.90
28244;DHT22;15510;52.512;13.300;2022-09-12T17:31:36;19.30;99.90
28244;DHT22;15510;52.512;13.300;2022-09-12T17:34:02;19.30;99.90